Terminal Aerodrome Forecast
Issued by NWS Burlington, VT

Home | Current Version | Previous Version | Text Only | Print | Product List | Glossary On
Versions: 1 2 3 4 5 6 7 8 9 10 11 12 13 14 15 16 17 18
000
FTUS41 KBTV 301129
TAFBTV
TAF
KBTV 301129Z 3012/0112 18007KT P6SM SCT050 BKN150
     FM302000 17007KT P6SM -SHRA BKN040 OVC100
     FM010400 17008KT P6SM VCSH BKN045=

USA.gov is the U.S. government's official web portal to all federal, state and local government web resources and services.